Time;durP1;ratioP1;P1;durP2;ratioP2;P2;SDS_P1;SDS_P2;PMS_P1;PMS_P2;Temp;Humidity;BMP_temperature;BMP_pressure;BME280_temperature;BME280_humidity;BME280_pressure;Samples;Min_cycle;Max_cycle;Signal;HPM_P1;HPM_P2
2021/04/09 00:00:04;;;;;;;14.63;7.80;;;;;;;0.15;83.41;96368.81;1041094;28;20033;-69
2021/04/09 00:00:35;;;;;;;15.10;8.07;;;;;;;0.17;83.92;96369.44;1042056;28;20033;-70
2021/04/09 00:01:05;;;;;;;12.63;8.03;;;;;;;0.17;83.04;96366.00;1045156;28;20028;-70
2021/04/09 00:01:40;;;;;;;11.37;7.57;;;;;;;0.18;83.80;96371.06;1045247;28;20056;-70
2021/04/09 00:02:10;;;;;;;12.05;7.40;;;;;;;0.17;83.36;96374.69;1045250;28;20052;-70
2021/04/09 00:02:41;;;;;;;13.43;7.77;;;;;;;0.16;83.23;96367.00;1044731;28;20028;-70
2021/04/09 00:03:11;;;;;;;12.80;7.20;;;;;;;0.16;83.77;96367.00;1044919;28;20025;-70
2021/04/09 00:03:42;;;;;;;11.70;7.27;;;;;;;0.15;83.34;96375.88;1044688;28;20028;-70
2021/04/09 00:04:13;;;;;;;12.27;6.90;;;;;;;0.19;83.43;96375.28;1044683;28;20123;-69
2021/04/09 00:04:43;;;;;;;12.45;7.43;;;;;;;0.16;83.28;96374.91;1045021;28;20024;-70
2021/04/09 00:05:16;;;;;;;10.87;6.53;;;;;;;0.09;83.87;96366.16;1044652;28;20044;-69
2021/04/09 00:05:47;;;;;;;15.25;7.80;;;;;;;0.12;83.97;96381.53;1045250;28;20315;-69
2021/04/09 00:06:17;;;;;;;14.43;7.03;;;;;;;0.10;82.99;96373.03;1045064;28;20075;-69
2021/04/09 00:06:47;;;;;;;12.73;6.87;;;;;;;0.14;83.43;96379.50;1045193;28;20029;-69
2021/04/09 00:07:18;;;;;;;11.17;6.73;;;;;;;0.15;83.30;96379.31;1044879;28;20017;-70
2021/04/09 00:07:49;;;;;;;11.00;7.07;;;;;;;0.18;83.27;96372.88;1040741;28;20014;-70
2021/04/09 00:08:19;;;;;;;15.00;6.60;;;;;;;0.19;82.96;96375.28;1041382;28;20017;-70
2021/04/09 00:08:50;;;;;;;11.70;6.70;;;;;;;0.20;82.97;96378.72;1045348;28;20025;-71
2021/04/09 00:09:20;;;;;;;14.30;6.70;;;;;;;0.11;82.53;96372.03;1045346;28;20103;-70
2021/04/09 00:09:51;;;;;;;10.20;6.87;;;;;;;0.17;82.81;96373.88;1045157;28;20363;-70
2021/04/09 00:10:25;;;;;;;11.17;6.20;;;;;;;0.17;83.26;96369.44;1045372;28;20017;-71
2021/04/09 00:10:56;;;;;;;11.07;6.57;;;;;;;0.16;82.86;96373.06;1044749;28;20504;-71
2021/04/09 00:11:27;;;;;;;12.97;6.33;;;;;;;0.10;82.56;96375.66;1043862;28;20079;-70
2021/04/09 00:11:57;;;;;;;12.85;6.85;;;;;;;0.14;82.73;96369.00;1045604;28;20021;-70
2021/04/09 00:12:27;;;;;;;10.97;6.40;;;;;;;0.13;82.84;96370.81;1045084;28;20025;-71
2021/04/09 00:12:58;;;;;;;12.70;6.43;;;;;;;0.10;82.36;96373.03;1045212;28;20016;-70
2021/04/09 00:13:28;;;;;;;10.40;6.20;;;;;;;0.09;82.53;96361.69;1044839;28;20458;-70
2021/04/09 00:13:58;;;;;;;12.23;6.63;;;;;;;0.13;82.73;96370.81;1045197;28;20017;-70
2021/04/09 00:14:29;;;;;;;13.37;5.97;;;;;;;0.11;82.86;96370.22;1044063;28;20021;-70
2021/04/09 00:14:59;;;;;;;9.67;6.03;;;;;;;0.11;82.98;96374.66;1040997;28;20029;-70
2021/04/09 00:15:30;;;;;;;10.47;6.23;;;;;;;0.03;83.23;96372.19;1041108;28;20017;-70
2021/04/09 00:16:00;;;;;;;13.57;7.03;;;;;;;0.07;83.26;96373.44;1041557;28;20026;-70
2021/04/09 00:16:30;;;;;;;15.23;7.13;;;;;;;0.09;83.13;96371.41;1041039;28;20044;-70
2021/04/09 00:17:01;;;;;;;10.03;6.10;;;;;;;0.10;83.40;96367.75;1041491;28;20413;-70
2021/04/09 00:17:32;;;;;;;12.00;6.33;;;;;;;0.12;83.25;96363.94;1041453;28;20618;-70
2021/04/09 00:18:02;;;;;;;12.93;6.23;;;;;;;0.18;82.35;96370.25;1041583;28;20426;-71
2021/04/09 00:18:33;;;;;;;10.57;6.20;;;;;;;0.17;82.33;96372.06;1041097;28;20091;-71
2021/04/09 00:19:06;;;;;;;17.80;6.13;;;;;;;0.11;82.24;96364.97;1041310;28;20021;-71
2021/04/09 00:19:36;;;;;;;10.75;6.20;;;;;;;0.06;82.80;96367.38;1041662;28;20029;-70
2021/04/09 00:20:07;;;;;;;10.00;5.87;;;;;;;0.09;83.09;96366.16;1041541;28;20018;-71
2021/04/09 00:20:37;;;;;;;10.87;5.63;;;;;;;0.07;82.91;96368.97;1041028;28;20409;-70
2021/04/09 00:21:08;;;;;;;14.87;6.60;;;;;;;0.02;83.12;96363.50;1040952;28;20026;-70
2021/04/09 00:21:38;;;;;;;10.57;6.03;;;;;;;0.06;83.29;96356.84;1041538;28;20029;-70
2021/04/09 00:22:08;;;;;;;10.73;6.10;;;;;;;0.05;83.35;96363.09;1041503;28;20028;-70
2021/04/09 00:22:39;;;;;;;13.60;6.17;;;;;;;0.05;83.47;96362.28;1045505;28;20024;-70
2021/04/09 00:23:09;;;;;;;8.50;5.97;;;;;;;0.07;82.95;96353.22;1045286;28;20028;-69
2021/04/09 00:23:40;;;;;;;9.30;5.83;;;;;;;0.06;82.75;96361.31;1045130;28;20017;-69
2021/04/09 00:24:11;;;;;;;10.43;5.87;;;;;;;0.03;82.87;96354.59;1045309;28;20532;-70
2021/04/09 00:24:41;;;;;;;10.80;6.25;;;;;;;0.03;82.59;96351.97;1045227;28;20029;-70
2021/04/09 00:25:12;;;;;;;9.10;6.10;;;;;;;0.05;82.81;96354.41;1045120;28;20382;-70
2021/04/09 00:25:43;;;;;;;10.20;5.75;;;;;;;-0.02;83.37;96354.38;1041432;28;20009;-70
2021/04/09 00:26:13;;;;;;;12.63;6.07;;;;;;;-0.06;83.49;96355.75;1041092;28;20018;-71
2021/04/09 00:26:44;;;;;;;12.47;6.00;;;;;;;-0.03;83.65;96352.75;1041280;28;20009;-69
2021/04/09 00:27:14;;;;;;;14.00;5.90;;;;;;;-0.01;83.61;96351.53;1041380;28;20018;-70
2021/04/09 00:27:44;;;;;;;10.47;5.60;;;;;;;0.02;83.84;96358.25;1041253;28;20018;-70
2021/04/09 00:28:15;;;;;;;10.73;5.10;;;;;;;-0.01;83.19;96356.78;1040966;28;20029;-70
2021/04/09 00:28:45;;;;;;;12.17;6.07;;;;;;;0.01;83.71;96355.81;1040875;28;20155;-70
2021/04/09 00:29:16;;;;;;;9.80;5.60;;;;;;;0.03;83.37;96357.22;1041124;28;20521;-71
2021/04/09 00:29:46;;;;;;;12.60;5.30;;;;;;;0.05;82.69;96354.41;1041187;28;20075;-70
2021/04/09 00:30:20;;;;;;;10.67;6.20;;;;;;;0.08;82.72;96354.03;1041819;28;20029;-69
2021/04/09 00:30:50;;;;;;;10.65;5.95;;;;;;;0.07;83.28;96362.91;1043153;28;20056;-70
2021/04/09 00:31:21;;;;;;;11.73;5.90;;;;;;;0.08;82.92;96352.19;1045542;28;20522;-70
2021/04/09 00:31:51;;;;;;;11.53;6.23;;;;;;;0.08;82.95;96357.44;1045214;28;20538;-70
2021/04/09 00:32:22;;;;;;;10.97;5.90;;;;;;;0.08;83.15;96361.91;1044924;28;20021;-70
2021/04/09 00:32:52;;;;;;;8.90;5.20;;;;;;;0.05;83.34;96351.78;1045268;28;20470;-70
2021/04/09 00:33:22;;;;;;;9.53;5.33;;;;;;;0.09;83.02;96360.88;1044796;28;20017;-70
2021/04/09 00:33:53;;;;;;;11.43;5.67;;;;;;;0.02;82.90;96352.97;1045280;28;20067;-71
2021/04/09 00:34:23;;;;;;;10.43;5.70;;;;;;;0.01;82.74;96350.56;1045242;28;20063;-70
2021/04/09 00:34:54;;;;;;;7.90;5.40;;;;;;;-0.05;83.05;96352.16;1045502;28;20048;-70
2021/04/09 00:35:24;;;;;;;9.90;5.63;;;;;;;-0.09;84.00;96356.16;1046087;28;20152;-71
2021/04/09 00:35:54;;;;;;;8.60;5.47;;;;;;;-0.09;83.83;96354.34;1045843;28;20017;-70
2021/04/09 00:36:25;;;;;;;11.27;5.37;;;;;;;-0.07;83.88;96354.94;1045535;28;20017;-70
2021/04/09 00:36:55;;;;;;;8.90;5.53;;;;;;;-0.06;83.65;96355.75;1045527;28;20432;-68
2021/04/09 00:37:26;;;;;;;12.57;5.70;;;;;;;-0.06;83.45;96345.25;1045948;28;20016;-69
2021/04/09 00:37:56;;;;;;;8.80;5.30;;;;;;;-0.05;83.36;96352.97;1044938;28;20032;-70
2021/04/09 00:38:27;;;;;;;11.03;5.33;;;;;;;-0.06;83.71;96346.06;1044841;28;20013;-70
2021/04/09 00:38:57;;;;;;;9.07;5.40;;;;;;;-0.13;83.62;96347.84;1045424;28;20021;-69
2021/04/09 00:39:28;;;;;;;10.97;5.20;;;;;;;-0.14;84.28;96354.13;1045643;28;20012;-70
2021/04/09 00:39:58;;;;;;;10.90;5.60;;;;;;;-0.17;84.51;96341.34;1045971;28;20029;-70
2021/04/09 00:40:28;;;;;;;9.03;5.23;;;;;;;-0.16;84.07;96345.59;1045807;28;20436;-70
2021/04/09 00:40:59;;;;;;;9.63;5.17;;;;;;;-0.12;84.26;96349.47;1045922;28;20501;-70
2021/04/09 00:41:29;;;;;;;9.80;4.97;;;;;;;-0.13;84.05;96347.84;1046033;28;20013;-70
2021/04/09 00:42:00;;;;;;;11.90;5.43;;;;;;;-0.06;84.26;96353.13;1045594;28;20393;-70
2021/04/09 00:42:30;;;;;;;13.30;5.90;;;;;;;-0.02;84.39;96357.00;1045790;28;20417;-70
2021/04/09 00:43:01;;;;;;;8.50;5.20;;;;;;;-0.02;83.63;96349.91;1045567;28;20054;-70
2021/04/09 00:43:31;;;;;;;10.17;5.63;;;;;;;-0.03;84.07;96353.56;1045555;28;20020;-70
2021/04/09 00:44:02;;;;;;;12.53;5.80;;;;;;;-0.01;83.59;96351.53;1045870;28;20021;-69
2021/04/09 00:44:32;;;;;;;8.93;5.33;;;;;;;0.01;83.62;96350.56;1043698;28;20071;-71
2021/04/09 00:45:04;;;;;;;10.93;5.13;;;;;;;-0.06;83.58;96358.38;1041497;28;20030;-70
2021/04/09 00:45:35;;;;;;;8.60;5.03;;;;;;;-0.11;84.56;96358.16;1041768;28;20013;-70
2021/04/09 00:46:06;;;;;;;9.07;5.17;;;;;;;-0.09;84.28;96351.72;1041563;28;20021;-70
2021/04/09 00:46:37;;;;;;;12.13;5.30;;;;;;;-0.09;84.45;96353.53;1041685;28;20129;-69
2021/04/09 00:47:07;;;;;;;9.83;5.57;;;;;;;-0.10;84.14;96346.66;1041508;28;20026;-69
2021/04/09 00:47:38;;;;;;;9.47;5.60;;;;;;;-0.11;83.69;96350.28;1045517;28;20083;-69
2021/04/09 00:48:09;;;;;;;8.97;5.20;;;;;;;-0.10;84.24;96342.22;1041227;28;20021;-69
2021/04/09 00:48:40;;;;;;;13.50;5.07;;;;;;;-0.12;83.78;96348.66;1041404;28;20032;-69
2021/04/09 00:49:10;;;;;;;8.97;5.63;;;;;;;-0.13;84.15;96347.84;1041401;28;20034;-70
2021/04/09 00:49:41;;;;;;;10.87;5.70;;;;;;;-0.12;84.04;96346.03;1041319;28;20021;-70
2021/04/09 00:50:12;;;;;;;14.47;5.40;;;;;;;-0.15;84.46;96349.06;1041784;28;20021;-70
2021/04/09 00:50:42;;;;;;;12.73;5.68;;;;;;;-0.12;84.44;96344.22;1041956;28;20028;-71
2021/04/09 00:51:13;;;;;;;9.47;4.90;;;;;;;-0.12;84.14;96343.41;1041569;28;20029;-69
2021/04/09 00:51:43;;;;;;;11.57;5.47;;;;;;;-0.13;84.10;96347.03;1037185;28;20029;-70
2021/04/09 00:52:13;;;;;;;11.87;5.20;;;;;;;-0.11;83.82;96337.94;1037410;28;20037;-70
2021/04/09 00:52:44;;;;;;;8.83;5.60;;;;;;;-0.13;84.32;96342.59;1029139;28;20029;-70
2021/04/09 00:53:14;;;;;;;9.87;5.27;;;;;;;-0.15;83.66;96344.63;1025391;28;20034;-70
2021/04/09 00:53:45;;;;;;;10.70;5.13;;;;;;;-0.13;83.76;96347.03;1025133;29;20456;-70
2021/04/09 00:54:15;;;;;;;7.97;5.10;;;;;;;-0.19;83.74;96340.75;1025254;28;20098;-71
2021/04/09 00:54:46;;;;;;;8.47;5.17;;;;;;;-0.23;84.20;96339.50;1025343;28;20523;-70
2021/04/09 00:55:16;;;;;;;8.97;5.60;;;;;;;-0.18;84.52;96339.75;1025408;28;20024;-71
2021/04/09 00:55:46;;;;;;;12.20;5.30;;;;;;;-0.16;84.14;96337.72;1029467;28;20023;-69
2021/04/09 00:56:19;;;;;;;8.90;5.27;;;;;;;-0.13;84.24;96347.84;1029537;28;20023;-70
2021/04/09 00:56:49;;;;;;;9.82;5.82;;;;;;;-0.17;84.39;96333.47;1029670;28;20094;-70
2021/04/09 00:57:19;;;;;;;10.97;5.63;;;;;;;-0.16;83.75;96342.16;1033700;28;20026;-70
2021/04/09 00:57:50;;;;;;;12.07;6.23;;;;;;;-0.19;83.68;96345.19;1037476;28;20379;-70
2021/04/09 00:58:21;;;;;;;11.80;4.95;;;;;;;-0.26;83.95;96332.00;1037487;28;20026;-70
2021/04/09 00:58:51;;;;;;;10.33;5.80;;;;;;;-0.28;84.44;96339.28;1041485;28;20025;-70
2021/04/09 00:59:22;;;;;;;12.83;5.03;;;;;;;-0.27;84.52;96346.16;1041339;28;20029;-70
2021/04/09 00:59:52;;;;;;;8.13;5.03;;;;;;;-0.23;84.31;96342.13;1041397;28;20029;-70
2021/04/09 01:00:23;;;;;;;11.50;5.40;;;;;;;-0.21;84.73;96334.06;1041173;28;20087;-71
2021/04/09 01:00:53;;;;;;;9.87;5.20;;;;;;;-0.19;84.18;96335.50;1041273;28;20056;-70
2021/04/09 01:01:24;;;;;;;14.00;5.90;;;;;;;-0.20;84.45;96336.50;1041258;28;20256;-70
2021/04/09 01:01:55;;;;;;;13.55;5.47;;;;;;;-0.17;84.16;96338.72;1041142;28;20031;-70
2021/04/09 01:02:25;;;;;;;11.07;5.13;;;;;;;-0.19;84.23;96345.19;1045399;28;20375;-70
2021/04/09 01:02:57;;;;;;;11.27;6.20;;;;;;;-0.18;84.52;96339.75;1037187;28;20542;-70
2021/04/09 01:03:27;;;;;;;9.77;5.75;;;;;;;-0.20;84.44;96336.50;1037103;28;20371;-70
2021/04/09 01:03:58;;;;;;;10.83;5.57;;;;;;;-0.20;84.21;96338.31;1037029;28;20057;-69
2021/04/09 01:04:28;;;;;;;9.03;5.30;;;;;;;-0.23;84.54;96334.25;1037375;28;20109;-69
2021/04/09 01:04:59;;;;;;;8.40;5.53;;;;;;;-0.30;84.64;96341.28;1037028;28;20021;-71
2021/04/09 01:05:30;;;;;;;11.80;5.75;;;;;;;-0.32;84.47;96340.66;1037190;28;20022;-70
2021/04/09 01:06:00;;;;;;;9.70;5.60;;;;;;;-0.29;84.90;96338.47;1037426;28;20057;-70
2021/04/09 01:06:31;;;;;;;10.23;5.53;;;;;;;-0.27;84.44;96338.28;1041194;28;20029;-70
2021/04/09 01:07:01;;;;;;;8.23;5.40;;;;;;;-0.28;84.90;96332.19;1041308;28;20072;-70
2021/04/09 01:07:32;;;;;;;9.70;5.63;;;;;;;-0.28;85.10;96339.28;1041295;28;20016;-71
2021/04/09 01:08:03;;;;;;;13.07;5.80;;;;;;;-0.29;84.78;96342.91;1041097;28;20053;-69
2021/04/09 01:08:35;;;;;;;11.43;5.38;;;;;;;-0.30;84.74;96336.03;1033242;28;20455;-70
2021/04/09 01:09:06;;;;;;;12.93;5.70;;;;;;;-0.34;85.46;96345.31;1036830;28;20022;-69
2021/04/09 01:09:36;;;;;;;11.37;5.50;;;;;;;-0.34;84.94;96338.22;1036894;28;20033;-69
2021/04/09 01:10:08;;;;;;;10.57;5.87;;;;;;;-0.34;85.29;96340.06;1037362;28;20383;-69
2021/04/09 01:10:38;;;;;;;10.60;5.75;;;;;;;-0.33;85.43;96336.41;1040937;28;20060;-71
2021/04/09 01:11:09;;;;;;;11.10;5.63;;;;;;;-0.32;84.97;96338.84;1036836;28;20029;-71
2021/04/09 01:11:40;;;;;;;10.48;6.03;;;;;;;-0.31;85.12;96324.72;1032274;28;20581;-70
2021/04/09 01:12:10;;;;;;;11.03;6.00;;;;;;;-0.29;84.91;96338.47;1033199;28;20077;-70
2021/04/09 01:12:41;;;;;;;10.20;6.03;;;;;;;-0.30;85.25;96334.22;1037110;28;20076;-71
2021/04/09 01:13:11;;;;;;;11.40;5.80;;;;;;;-0.24;84.26;96330.00;1040759;28;20454;-69
2021/04/09 01:13:44;;;;;;;11.20;5.57;;;;;;;-0.22;84.72;96332.44;1044630;28;20525;-70
2021/04/09 01:14:14;;;;;;;11.63;5.38;;;;;;;-0.27;84.76;96325.94;1040929;28;20036;-70
2021/04/09 01:14:44;;;;;;;10.63;5.83;;;;;;;-0.29;84.59;96324.53;1042354;28;20080;-70
2021/04/09 01:15:16;;;;;;;10.97;5.30;;;;;;;-0.33;84.78;96324.09;1040239;28;20021;-70
2021/04/09 01:15:46;;;;;;;9.27;5.40;;;;;;;-0.30;84.97;96325.53;1041062;28;20395;-70
2021/04/09 01:16:21;;;;;;;11.10;6.17;;;;;;;-0.25;84.51;96322.34;1040640;28;20028;-70
2021/04/09 01:17:02;;;;;;;12.88;5.63;;;;;;;-0.30;84.76;96320.28;1038232;28;20024;-70
2021/04/09 01:17:40;;;;;;;16.00;5.88;;;;;;;-0.22;84.51;96324.56;1040521;28;20053;-71
2021/04/09 01:18:21;;;;;;;11.38;5.45;;;;;;;-0.28;84.79;96316.44;1036544;28;20076;-70
2021/04/09 01:19:06;;;;;;;13.18;5.60;;;;;;;-0.23;84.80;96315.88;1036555;28;20034;-69
2021/04/09 01:20:07;;;;;;;11.80;5.80;;;;;;;-0.23;84.52;96321.13;1036595;28;20022;-70
2021/04/09 01:20:49;;;;;;;10.32;5.40;;;;;;;-0.26;84.85;96321.50;1043017;28;20032;-69
2021/04/09 01:21:34;;;;;;;10.63;5.93;;;;;;;-0.26;84.23;96321.50;1041866;28;20579;-69
2021/04/09 01:22:05;;;;;;;12.23;5.20;;;;;;;-0.30;84.36;96322.91;1040830;28;20037;-69
2021/04/09 01:22:45;;;;;;;9.30;5.10;;;;;;;-0.28;85.04;96319.06;1032242;28;20401;-69
2021/04/09 01:23:34;;;;;;;10.30;5.38;;;;;;;-0.36;85.06;96316.63;1036948;28;20014;-70
2021/04/09 01:24:24;;;;;;;10.65;5.40;;;;;;;-0.37;84.90;96314.97;1036771;28;20026;-71
2021/04/09 01:25:13;;;;;;;9.38;5.35;;;;;;;-0.37;85.10;96314.16;1041704;28;20044;-70
2021/04/09 01:26:07;;;;;;;11.23;5.43;;;;;;;-0.38;85.39;96325.69;1038149;28;20045;-70
2021/04/09 01:27:00;;;;;;;15.23;5.93;;;;;;;-0.36;84.92;96319.25;1036868;28;20043;-70
2021/04/09 01:27:56;;;;;;;12.25;5.65;;;;;;;-0.38;85.54;96317.81;1032906;28;20030;-70
2021/04/09 01:28:39;;;;;;;9.93;5.30;;;;;;;-0.39;85.13;96317.00;1041172;28;20017;-69
2021/04/09 01:29:40;;;;;;;10.45;5.63;;;;;;;-0.40;84.66;96320.63;1035081;28;20026;-69
2021/04/09 01:30:54;;;;;;;10.13;5.63;;;;;;;-0.38;85.24;96317.81;1040680;28;20040;-69
2021/04/09 01:31:47;;;;;;;8.35;5.13;;;;;;;-0.38;85.66;96325.69;1048356;28;20038;-70
2021/04/09 01:32:17;;;;;;;12.05;5.82;;;;;;;-0.37;85.60;96314.97;1045565;28;20477;-70
2021/04/09 01:32:48;;;;;;;9.37;5.77;;;;;;;-0.33;85.82;96316.22;1041227;28;20026;-70
2021/04/09 01:33:29;;;;;;;12.77;5.93;;;;;;;-0.34;86.16;96311.16;1037073;28;20028;-70
2021/04/09 01:34:00;;;;;;;10.25;5.75;;;;;;;-0.30;85.72;96320.28;1033115;28;20032;-70
2021/04/09 01:34:42;;;;;;;10.00;5.43;;;;;;;-0.39;85.29;96319.63;1042955;28;20168;-69
2021/04/09 01:35:14;;;;;;;8.13;5.20;;;;;;;-0.37;85.34;96312.34;1037603;28;20018;-70
2021/04/09 01:35:44;;;;;;;10.98;6.00;;;;;;;-0.32;85.15;96319.66;1035563;28;20021;-70
2021/04/09 01:36:16;;;;;;;10.13;5.40;;;;;;;-0.35;85.50;96320.06;1033335;28;20029;-70
2021/04/09 01:36:51;;;;;;;10.50;5.93;;;;;;;-0.37;84.97;96314.16;1030531;28;20499;-70
2021/04/09 01:37:27;;;;;;;11.25;5.43;;;;;;;-0.39;84.98;96310.94;1036994;28;20026;-70
2021/04/09 01:38:00;;;;;;;11.88;5.50;;;;;;;-0.35;85.16;96309.56;1036153;28;20054;-70
2021/04/09 01:38:31;;;;;;;12.70;5.57;;;;;;;-0.37;85.19;96311.53;1034618;28;20507;-69
2021/04/09 01:39:08;;;;;;;15.45;6.00;;;;;;;-0.38;85.07;96317.81;1036670;28;20164;-69
2021/04/09 01:39:40;;;;;;;11.10;5.88;;;;;;;-0.45;84.91;96309.09;1038329;28;20076;-69
2021/04/09 01:40:17;;;;;;;11.55;5.78;;;;;;;-0.43;85.65;96307.88;1037078;28;20033;-69
2021/04/09 01:40:48;;;;;;;8.93;5.30;;;;;;;-0.48;85.54;96312.91;1035907;28;20057;-70
2021/04/09 01:41:18;;;;;;;10.27;5.67;;;;;;;-0.44;85.45;96308.06;1034031;28;20042;-69
2021/04/09 01:41:49;;;;;;;13.73;5.77;;;;;;;-0.44;85.51;96310.69;1033940;28;20028;-69
2021/04/09 01:42:20;;;;;;;11.00;5.90;;;;;;;-0.43;85.75;96307.06;1028415;28;20035;-70
2021/04/09 01:42:52;;;;;;;11.20;6.30;;;;;;;-0.42;85.71;96304.25;1029033;28;20488;-69
2021/04/09 01:43:22;;;;;;;20.15;6.45;;;;;;;-0.42;85.68;96306.88;1029528;28;20066;-69
2021/04/09 01:43:53;;;;;;;12.33;6.10;;;;;;;-0.40;85.44;96309.31;1033635;28;20439;-69
2021/04/09 01:44:24;;;;;;;12.47;6.70;;;;;;;-0.37;85.72;96307.09;1032809;28;20514;-69
2021/04/09 01:44:55;;;;;;;11.70;6.22;;;;;;;-0.39;85.61;96308.31;1033469;28;20511;-70
2021/04/09 01:45:25;;;;;;;10.23;6.50;;;;;;;-0.38;85.49;96305.47;1033006;28;20026;-70
2021/04/09 01:45:56;;;;;;;10.70;5.67;;;;;;;-0.38;85.51;96313.34;1028920;28;20030;-69
2021/04/09 01:46:26;;;;;;;10.40;5.83;;;;;;;-0.39;85.75;96298.59;1025046;29;20033;-70
2021/04/09 01:46:57;;;;;;;10.47;6.10;;;;;;;-0.43;85.33;96309.69;1025006;29;20102;-70
2021/04/09 01:47:27;;;;;;;10.27;6.00;;;;;;;-0.42;85.98;96303.44;1032647;28;20353;-70
2021/04/09 01:47:58;;;;;;;12.97;6.20;;;;;;;-0.44;85.24;96302.81;1032497;28;20022;-70
2021/04/09 01:48:28;;;;;;;14.70;6.63;;;;;;;-0.41;85.70;96302.41;1032589;28;20010;-70
2021/04/09 01:48:59;;;;;;;13.77;6.27;;;;;;;-0.40;86.10;96299.63;1032100;28;20014;-70
2021/04/09 01:49:31;;;;;;;13.20;6.37;;;;;;;-0.37;85.64;96307.09;1028653;28;20031;-71
2021/04/09 01:50:02;;;;;;;15.23;6.65;;;;;;;-0.33;86.18;96303.09;1028729;28;20034;-70
2021/04/09 01:50:33;;;;;;;11.50;6.28;;;;;;;-0.33;85.50;96305.72;1032850;28;20041;-69
2021/04/09 01:51:03;;;;;;;12.43;6.23;;;;;;;-0.29;85.50;96300.88;1032212;28;20029;-69
2021/04/09 01:51:34;;;;;;;10.90;6.03;;;;;;;-0.36;85.37;96300.03;1032507;28;20018;-69
2021/04/09 01:52:05;;;;;;;12.27;6.73;;;;;;;-0.41;85.65;96298.00;1032458;28;20027;-69
2021/04/09 01:52:36;;;;;;;11.65;6.53;;;;;;;-0.38;85.72;96297.59;1028739;28;20124;-69
2021/04/09 01:53:06;;;;;;;12.43;6.73;;;;;;;-0.37;85.10;96295.78;1028722;28;20052;-69
2021/04/09 01:53:38;;;;;;;11.77;6.17;;;;;;;-0.34;85.25;96292.78;1033265;28;20053;-69
2021/04/09 01:54:08;;;;;;;11.15;6.32;;;;;;;-0.35;85.06;96297.22;1033169;28;20034;-69
2021/04/09 01:54:39;;;;;;;10.27;6.20;;;;;;;-0.37;84.74;96286.09;1037051;28;20352;-70
2021/04/09 01:55:10;;;;;;;14.23;6.50;;;;;;;-0.40;85.11;96286.50;1033613;28;20384;-70
2021/04/09 01:55:43;;;;;;;11.25;6.13;;;;;;;-0.42;85.08;96287.66;1029564;28;20682;-70
2021/04/09 01:56:15;;;;;;;12.40;6.13;;;;;;;-0.40;85.62;96291.75;1029486;28;20118;-70
2021/04/09 01:56:46;;;;;;;13.18;5.90;;;;;;;-0.39;85.53;96284.66;1029324;28;20029;-70
2021/04/09 01:57:17;;;;;;;11.40;6.03;;;;;;;-0.40;85.36;96294.38;1036865;28;20375;-71
2021/04/09 01:57:48;;;;;;;16.05;6.35;;;;;;;-0.39;85.50;96290.72;1032507;28;20022;-70
2021/04/09 01:58:18;;;;;;;11.93;6.43;;;;;;;-0.40;85.19;96294.38;1032256;28;20026;-70
2021/04/09 01:58:49;;;;;;;14.27;6.07;;;;;;;-0.37;85.07;96293.16;1028629;28;20031;-70
2021/04/09 01:59:19;;;;;;;11.17;5.93;;;;;;;-0.34;85.31;96287.53;1028088;28;20027;-70
2021/04/09 01:59:49;;;;;;;12.27;5.87;;;;;;;-0.35;85.48;96291.97;1028208;28;20022;-70
2021/04/09 02:00:22;;;;;;;10.70;6.27;;;;;;;-0.37;85.37;96290.53;1036121;28;20060;-70
2021/04/09 02:00:52;;;;;;;10.70;5.90;;;;;;;-0.35;85.06;96286.72;1036599;28;20054;-70
2021/04/09 02:01:23;;;;;;;9.30;5.63;;;;;;;-0.35;85.36;96285.91;1029589;28;20073;-70
2021/04/09 02:01:53;;;;;;;10.20;6.30;;;;;;;-0.38;85.51;96278.41;1029186;28;20062;-70
2021/04/09 02:02:24;;;;;;;13.27;6.07;;;;;;;-0.38;85.62;96286.28;1033093;28;20018;-70
2021/04/09 02:02:54;;;;;;;15.20;6.30;;;;;;;-0.40;85.40;96283.88;1033103;28;20026;-70
2021/04/09 02:03:25;;;;;;;11.83;5.73;;;;;;;-0.43;85.32;96288.69;1032786;28;20022;-70
2021/04/09 02:03:55;;;;;;;13.57;5.73;;;;;;;-0.39;85.46;96287.28;1028665;28;20027;-70
2021/04/09 02:04:25;;;;;;;11.17;6.13;;;;;;;-0.40;85.71;96283.06;1032765;28;20022;-70
2021/04/09 02:04:56;;;;;;;9.80;5.87;;;;;;;-0.43;85.58;96288.69;1032494;28;20025;-70
2021/04/09 02:05:27;;;;;;;11.17;5.97;;;;;;;-0.45;85.89;96286.25;1032341;28;20670;-70
2021/04/09 02:05:58;;;;;;;11.00;6.18;;;;;;;-0.44;85.44;96281.81;1032282;28;20041;-70
2021/04/09 02:06:28;;;;;;;11.97;5.60;;;;;;;-0.45;85.54;96288.06;1032231;28;20403;-70
2021/04/09 02:06:59;;;;;;;13.50;6.80;;;;;;;-0.49;85.64;96284.22;1032346;28;20018;-70
2021/04/09 02:07:31;;;;;;;9.33;6.00;;;;;;;-0.50;85.81;96282.59;1032232;28;20026;-70
2021/04/09 02:08:02;;;;;;;9.18;5.80;;;;;;;-0.44;86.17;96287.88;1028248;28;20766;-70
2021/04/09 02:08:34;;;;;;;11.15;5.70;;;;;;;-0.43;86.25;96279.00;1028601;28;20077;-70
2021/04/09 02:09:04;;;;;;;13.27;6.93;;;;;;;-0.41;85.90;96291.91;1028423;28;20023;-70
2021/04/09 02:09:35;;;;;;;12.87;6.27;;;;;;;-0.39;85.62;96282.03;1032985;28;20491;-71
2021/04/09 02:10:06;;;;;;;14.13;6.57;;;;;;;-0.35;85.45;96278.03;1035748;28;20025;-70
2021/04/09 02:10:36;;;;;;;11.53;5.93;;;;;;;-0.40;85.92;96288.31;1032266;28;20030;-70
2021/04/09 02:11:07;;;;;;;11.83;7.17;;;;;;;-0.39;85.77;96282.84;1031872;28;20026;-70
2021/04/09 02:11:37;;;;;;;12.50;6.47;;;;;;;-0.42;85.29;96274.53;1023948;28;20026;-70
2021/04/09 02:12:09;;;;;;;13.00;6.33;;;;;;;-0.40;85.66;96281.22;1023848;28;20035;-70
2021/04/09 02:12:43;;;;;;;10.52;5.85;;;;;;;-0.40;85.60;96283.06;1024075;28;20047;-70
2021/04/09 02:13:13;;;;;;;9.95;6.35;;;;;;;-0.40;85.60;96280.44;1029399;28;20460;-70
2021/04/09 02:13:43;;;;;;;12.93;6.47;;;;;;;-0.40;85.24;96280.44;1032751;28;20018;-70
2021/04/09 02:14:14;;;;;;;12.10;6.37;;;;;;;-0.42;85.01;96275.34;1028529;28;20034;-70
2021/04/09 02:14:45;;;;;;;12.02;6.30;;;;;;;-0.43;85.01;96278.19;1032446;28;20087;-70
2021/04/09 02:15:17;;;;;;;11.60;6.80;;;;;;;-0.44;85.06;96281.81;1032106;28;20040;-70
2021/04/09 02:15:48;;;;;;;10.23;6.57;;;;;;;-0.46;85.85;96281.19;1036888;28;20372;-70
2021/04/09 02:16:18;;;;;;;11.97;6.63;;;;;;;-0.52;86.07;96278.31;1035715;28;20077;-70
2021/04/09 02:16:49;;;;;;;10.47;6.10;;;;;;;-0.54;85.94;96279.53;1028158;28;20070;-70
2021/04/09 02:17:19;;;;;;;10.63;6.07;;;;;;;-0.54;86.07;96277.72;1031953;28;20069;-70
2021/04/09 02:17:50;;;;;;;10.67;5.80;;;;;;;-0.56;86.24;96277.13;1036114;28;20025;-70
2021/04/09 02:18:20;;;;;;;11.73;6.77;;;;;;;-0.53;85.75;96278.53;1036370;28;20028;-70
2021/04/09 02:18:51;;;;;;;10.07;6.10;;;;;;;-0.52;86.20;96278.31;1040483;28;20044;-69
2021/04/09 02:19:23;;;;;;;13.03;6.50;;;;;;;-0.47;85.88;96282.19;1033044;28;20018;-70
2021/04/09 02:19:54;;;;;;;11.95;6.22;;;;;;;-0.49;86.15;96286.84;1040868;28;20483;-70
2021/04/09 02:20:24;;;;;;;11.43;6.40;;;;;;;-0.48;86.28;96280.56;1036354;28;20018;-70
2021/04/09 02:21:01;;;;;;;12.50;6.80;;;;;;;-0.52;86.32;96273.06;1036325;28;20014;-69
2021/04/09 02:21:37;;;;;;;11.23;6.32;;;;;;;-0.54;86.29;96277.72;1040127;28;20071;-70
2021/04/09 02:22:08;;;;;;;9.50;5.90;;;;;;;-0.54;86.11;96277.72;1040070;28;20421;-70
2021/04/09 02:22:39;;;;;;;11.93;6.25;;;;;;;-0.56;86.30;96279.75;1040295;28;20017;-70
2021/04/09 02:23:10;;;;;;;12.57;5.67;;;;;;;-0.53;86.47;96275.91;1040358;28;20467;-70
2021/04/09 02:23:40;;;;;;;11.97;6.00;;;;;;;-0.58;85.97;96278.28;1040223;28;20256;-70
2021/04/09 02:24:10;;;;;;;11.07;6.63;;;;;;;-0.50;86.49;96275.53;1036081;28;20066;-70
2021/04/09 02:24:41;;;;;;;11.47;6.63;;;;;;;-0.46;86.54;96275.94;1036351;28;20048;-70
2021/04/09 02:25:12;;;;;;;12.93;7.07;;;;;;;-0.47;86.08;96276.94;1036175;28;20026;-70
2021/04/09 02:25:43;;;;;;;11.88;6.25;;;;;;;-0.44;85.60;96271.31;1036493;28;20040;-70
2021/04/09 02:26:13;;;;;;;9.97;6.20;;;;;;;-0.47;86.10;96277.75;1036193;28;20018;-70
2021/04/09 02:26:44;;;;;;;10.03;5.73;;;;;;;-0.50;85.76;96279.97;1035917;28;20541;-70
2021/04/09 02:27:15;;;;;;;11.47;6.10;;;;;;;-0.49;85.75;96273.72;1032128;28;20090;-70
2021/04/09 02:27:46;;;;;;;11.35;6.60;;;;;;;-0.47;86.10;96271.69;1036073;28;20017;-72
2021/04/09 02:28:16;;;;;;;11.73;6.30;;;;;;;-0.46;85.84;96268.88;1035783;28;20054;-70
2021/04/09 02:28:46;;;;;;;13.07;6.43;;;;;;;-0.49;86.38;96273.72;1031913;28;20026;-70
2021/04/09 02:29:17;;;;;;;9.37;5.77;;;;;;;-0.49;86.20;96282.41;1027910;28;20043;-70
2021/04/09 02:29:47;;;;;;;14.80;6.00;;;;;;;-0.56;86.41;96277.13;1027851;28;20034;-70
2021/04/09 02:30:19;;;;;;;11.37;6.80;;;;;;;-0.57;86.28;96278.09;1031759;28;20037;-70